Midway, Louisiana
Current Conditions -  °F | °C
As of 6:53 PM on Saturday 22 Nov 2014 (Local Time) from KAEX Reporting Station
Overcast Overcast  
Wind Chill: 65°   Ceiling: 3300
Heat Index: 65°   Visibility: 9mi
Dew Point: 59°   Wind: 16mph
Humidity: 81%   Direction: 120°ESE
Pressure: 29.91"   Gusts: 24mph
Location:  31.0356°N, 92.5053°W
Report Text: KAEX 230053Z 12014G21KT 9SM OVC033 18/15 A2991 RMK AO2 SLP132 T01830150
Loading
Personal Weather Stations






























Interactive Weather Map New forecast layout! Learn more

10-Day Weather Forecast

Advertisements
Track Severe Weather on mobile